createdAt,value
2023-03-25T00:00:59.608Z,11.40
2023-03-25T00:03:29.605Z,11.57
2023-03-25T00:05:58.922Z,11.47
2023-03-25T00:08:27.384Z,11.80
2023-03-25T00:10:59.268Z,11.93
2023-03-25T00:13:27.563Z,11.70
2023-03-25T00:15:58.215Z,11.27
2023-03-25T00:18:29.911Z,11.10
2023-03-25T00:20:58.968Z,11.73
2023-03-25T00:23:27.986Z,11.60
2023-03-25T00:26:00.544Z,11.23
2023-03-25T00:28:31.697Z,11.50
2023-03-25T00:31:01.800Z,11.00
2023-03-25T00:33:31.707Z,11.07
2023-03-25T00:36:00.188Z,10.70
2023-03-25T00:38:33.475Z,11.20
2023-03-25T00:41:12.101Z,10.73
2023-03-25T00:43:40.455Z,10.83
2023-03-25T00:46:08.602Z,11.40
2023-03-25T00:48:36.879Z,10.63
2023-03-25T00:51:10.092Z,10.67
2023-03-25T00:53:39.346Z,10.60
2023-03-25T00:56:08.453Z,11.00
2023-03-25T00:58:38.136Z,10.30
2023-03-25T01:01:13.334Z,10.40
2023-03-25T01:03:43.966Z,10.37
2023-03-25T01:06:13.048Z,10.97
2023-03-25T01:08:41.719Z,12.17
2023-03-25T01:11:19.619Z,10.77
2023-03-25T01:13:49.288Z,10.50
2023-03-25T01:16:17.415Z,10.60
2023-03-25T01:18:45.542Z,10.50
2023-03-25T01:21:13.647Z,10.83
2023-03-25T01:23:42.298Z,10.90
2023-03-25T01:26:10.462Z,11.00
2023-03-25T01:28:38.539Z,10.83
2023-03-25T01:31:09.875Z,10.73
2023-03-25T01:33:37.964Z,10.50
2023-03-25T01:36:09.705Z,10.37
2023-03-25T01:38:38.290Z,10.00
2023-03-25T01:41:07.432Z,10.63
2023-03-25T01:43:35.985Z,10.90
2023-03-25T01:46:04.447Z,10.53
2023-03-25T01:48:37.804Z,10.50
2023-03-25T01:51:12.003Z,10.33
2023-03-25T01:53:41.392Z,10.27
2023-03-25T01:56:13.557Z,10.33
2023-03-25T01:58:42.525Z,10.10
2023-03-25T02:01:13.783Z,11.00
2023-03-25T02:03:46.222Z,10.00
2023-03-25T02:06:20.911Z,10.43
2023-03-25T02:08:49.680Z,10.20
2023-03-25T02:11:18.702Z,10.40
2023-03-25T02:13:47.179Z,10.60
2023-03-25T02:16:27.512Z,9.80
2023-03-25T02:19:12.589Z,10.30
2023-03-25T02:22:11.738Z,10.60
2023-03-25T02:25:08.594Z,10.83
2023-03-25T02:27:58.335Z,10.57
2023-03-25T02:31:03.883Z,10.33
2023-03-25T02:33:48.766Z,10.67
2023-03-25T02:36:45.715Z,10.80
2023-03-25T02:39:18.850Z,10.20
2023-03-25T02:41:52.183Z,10.30
2023-03-25T02:44:26.317Z,10.50
2023-03-25T02:46:58.466Z,10.50
2023-03-25T02:49:30.926Z,10.73
2023-03-25T02:52:08.351Z,10.33
2023-03-25T02:54:41.559Z,9.97
2023-03-25T02:57:13.261Z,9.87
2023-03-25T02:59:42.120Z,9.57
2023-03-25T03:02:11.997Z,10.57
2023-03-25T03:04:48.155Z,9.10
2023-03-25T03:07:23.520Z,8.80
2023-03-25T03:10:00.217Z,8.93
2023-03-25T03:12:49.603Z,8.93
2023-03-25T03:15:29.218Z,8.10
2023-03-25T03:18:09.869Z,8.63
2023-03-25T03:20:45.235Z,8.90
2023-03-25T03:23:21.048Z,9.60
2023-03-25T03:25:56.315Z,8.83
2023-03-25T03:28:30.205Z,8.67
2023-03-25T03:31:06.857Z,8.97
2023-03-25T03:33:41.625Z,8.30
2023-03-25T03:36:13.620Z,8.40
2023-03-25T03:38:48.114Z,9.17
2023-03-25T03:41:22.156Z,8.60
2023-03-25T03:43:53.945Z,9.10
2023-03-25T03:46:28.360Z,8.70
2023-03-25T03:48:58.933Z,9.00
2023-03-25T03:51:31.722Z,8.90
2023-03-25T03:54:04.061Z,9.33
2023-03-25T03:56:39.414Z,8.60
2023-03-25T03:59:14.367Z,8.60
2023-03-25T04:01:46.993Z,8.43
2023-03-25T04:04:18.897Z,8.97
2023-03-25T04:06:56.843Z,8.90
2023-03-25T04:09:29.059Z,8.50
2023-03-25T04:12:03.983Z,9.00
2023-03-25T04:14:32.496Z,8.63
2023-03-25T04:17:00.713Z,8.80
2023-03-25T04:19:29.265Z,9.07
2023-03-25T04:21:57.390Z,8.47
2023-03-25T04:24:26.646Z,8.60
2023-03-25T04:26:57.764Z,8.80
2023-03-25T04:29:27.420Z,8.87
2023-03-25T04:31:56.887Z,9.40
2023-03-25T04:34:27.144Z,8.87
2023-03-25T04:36:57.929Z,8.80
2023-03-25T04:39:29.715Z,8.73
2023-03-25T04:41:57.832Z,9.20
2023-03-25T04:44:28.493Z,8.80
2023-03-25T04:46:57.266Z,8.80
2023-03-25T04:49:25.983Z,9.73
2023-03-25T04:51:56.987Z,9.00
2023-03-25T04:54:26.037Z,9.67
2023-03-25T04:56:54.291Z,9.43
2023-03-25T04:59:23.242Z,9.30
2023-03-25T05:01:52.802Z,9.20
2023-03-25T05:04:21.734Z,9.10
2023-03-25T05:06:51.670Z,9.63
2023-03-25T05:09:22.217Z,9.10
2023-03-25T05:11:51.991Z,9.30
2023-03-25T05:14:21.537Z,9.33
2023-03-25T05:16:49.861Z,9.53
2023-03-25T05:19:20.698Z,9.10
2023-03-25T05:21:49.021Z,9.30
2023-03-25T05:24:17.434Z,9.60
2023-03-25T05:26:45.592Z,10.00
2023-03-25T05:29:16.758Z,9.63
2023-03-25T05:31:46.925Z,9.40
2023-03-25T05:34:17.066Z,9.73
2023-03-25T05:36:47.874Z,9.50
2023-03-25T05:39:16.089Z,9.30
2023-03-25T05:41:45.806Z,9.37
2023-03-25T05:44:15.590Z,9.63
2023-03-25T05:46:44.276Z,9.93
2023-03-25T05:49:12.446Z,9.60
2023-03-25T05:51:40.571Z,9.90
2023-03-25T05:54:11.688Z,10.20
2023-03-25T05:56:41.457Z,10.10
2023-03-25T05:59:10.363Z,9.87
2023-03-25T06:01:39.044Z,10.67
2023-03-25T06:04:10.526Z,10.10
2023-03-25T06:06:39.483Z,10.00
2023-03-25T06:09:10.251Z,10.23
2023-03-25T06:11:46.785Z,10.67
2023-03-25T06:14:14.862Z,11.10
2023-03-25T06:16:43.916Z,11.47
2023-03-25T06:19:11.984Z,11.17
2023-03-25T06:21:40.079Z,11.10
2023-03-25T06:24:10.104Z,10.10
2023-03-25T06:26:38.371Z,10.97
2023-03-25T06:29:06.464Z,10.97
2023-03-25T06:31:34.797Z,10.30
2023-03-25T06:34:03.374Z,10.33
2023-03-25T06:36:31.781Z,10.73
2023-03-25T06:39:00.040Z,10.70
2023-03-25T06:41:29.636Z,10.97
2023-03-25T06:43:58.233Z,11.70
2023-03-25T06:46:26.438Z,11.10
2023-03-25T06:48:54.616Z,11.73
2023-03-25T06:51:23.888Z,10.87
2023-03-25T06:53:52.139Z,10.77
2023-03-25T06:56:20.554Z,11.37
2023-03-25T06:58:50.245Z,11.27
2023-03-25T07:01:18.676Z,12.30
2023-03-25T07:03:46.773Z,11.33
2023-03-25T07:06:18.620Z,11.43
2023-03-25T07:08:46.833Z,10.97
2023-03-25T07:11:17.115Z,11.20
2023-03-25T07:13:45.259Z,11.13
2023-03-25T07:16:14.917Z,11.23
2023-03-25T07:18:43.048Z,10.97
2023-03-25T07:21:11.134Z,10.70
2023-03-25T07:23:40.248Z,11.00
2023-03-25T07:26:09.106Z,10.80
2023-03-25T07:28:38.111Z,12.17
2023-03-25T07:31:08.496Z,11.07
2023-03-25T07:33:38.045Z,11.60
2023-03-25T07:36:07.761Z,10.83
2023-03-25T07:38:36.855Z,11.27
2023-03-25T07:41:07.700Z,10.80
2023-03-25T07:43:35.894Z,10.50
2023-03-25T07:46:04.083Z,10.60
2023-03-25T07:48:32.511Z,11.07
2023-03-25T07:51:02.029Z,11.13
2023-03-25T07:53:30.210Z,11.10
2023-03-25T07:55:58.328Z,11.10
2023-03-25T07:58:26.478Z,11.83
2023-03-25T08:00:57.251Z,11.30
2023-03-25T08:03:25.491Z,11.83
2023-03-25T08:05:54.050Z,11.93
2023-03-25T08:08:23.692Z,11.77
2023-03-25T08:10:53.447Z,11.63
2023-03-25T08:13:21.559Z,12.20
2023-03-25T08:15:50.235Z,11.73
2023-03-25T08:18:18.670Z,11.60
2023-03-25T08:20:46.986Z,12.20
2023-03-25T08:23:19.974Z,11.17
2023-03-25T08:25:51.101Z,10.87
2023-03-25T08:28:23.367Z,11.30
2023-03-25T08:30:55.159Z,10.70
2023-03-25T08:33:27.634Z,10.40
2023-03-25T08:35:58.586Z,10.50
2023-03-25T08:38:33.864Z,10.83
2023-03-25T08:41:04.599Z,11.07
2023-03-25T08:43:32.647Z,11.07
2023-03-25T08:46:00.881Z,11.50
2023-03-25T08:48:29.209Z,11.60
2023-03-25T08:50:57.812Z,11.40
2023-03-25T08:53:27.721Z,11.70
2023-03-25T08:55:58.433Z,11.70
2023-03-25T08:58:28.391Z,11.70
2023-03-25T09:00:58.475Z,11.20
2023-03-25T09:03:28.175Z,13.50
2023-03-25T09:05:56.322Z,11.23
2023-03-25T09:08:24.791Z,11.90
2023-03-25T09:10:53.114Z,11.73
2023-03-25T09:13:21.250Z,11.60
2023-03-25T09:15:51.101Z,11.40
2023-03-25T09:18:19.887Z,12.17
2023-03-25T09:20:48.659Z,11.43
2023-03-25T09:23:17.214Z,12.17
2023-03-25T09:25:46.367Z,12.10
2023-03-25T09:28:14.658Z,12.00
2023-03-25T09:30:43.060Z,12.00
2023-03-25T09:33:14.217Z,11.80
2023-03-25T09:35:42.842Z,12.00
2023-03-25T09:38:11.095Z,12.80
2023-03-25T09:40:41.862Z,12.73
2023-03-25T09:43:25.728Z,12.47
2023-03-25T09:45:56.660Z,14.07
2023-03-25T09:48:31.453Z,12.97
2023-03-25T09:51:03.148Z,13.00
2023-03-25T09:53:37.849Z,13.40
2023-03-25T09:56:12.234Z,12.83
2023-03-25T09:58:44.321Z,12.90
2023-03-25T10:01:29.722Z,12.00
2023-03-25T10:04:10.693Z,12.07
2023-03-25T10:06:49.350Z,12.73
2023-03-25T10:09:31.469Z,12.57
2023-03-25T10:12:04.421Z,12.20
2023-03-25T10:14:41.624Z,12.13
2023-03-25T10:17:18.372Z,12.00
2023-03-25T10:19:59.348Z,12.73
2023-03-25T10:22:34.842Z,12.10
2023-03-25T10:25:06.521Z,12.50
2023-03-25T10:27:38.373Z,11.97
2023-03-25T10:30:14.390Z,12.40
2023-03-25T10:32:45.384Z,12.57
2023-03-25T10:35:20.215Z,12.30
2023-03-25T10:37:51.777Z,12.50
2023-03-25T10:40:25.411Z,12.30
2023-03-25T10:43:05.099Z,12.13
2023-03-25T10:45:35.253Z,11.70
2023-03-25T10:48:10.876Z,12.00
2023-03-25T10:50:42.393Z,12.00
2023-03-25T10:53:21.549Z,11.73
2023-03-25T10:55:55.580Z,12.93
2023-03-25T10:58:24.812Z,12.70
2023-03-25T11:00:53.051Z,12.07
2023-03-25T11:03:28.079Z,11.70
2023-03-25T11:05:58.932Z,10.20
2023-03-25T11:08:27.385Z,9.93
2023-03-25T11:11:01.035Z,10.83
2023-03-25T11:13:31.932Z,10.80
2023-03-25T11:16:03.241Z,10.23
2023-03-25T11:18:35.620Z,9.97
2023-03-25T11:21:08.633Z,10.20
2023-03-25T11:23:38.859Z,10.60
2023-03-25T11:26:13.399Z,10.03
2023-03-25T11:28:45.223Z,9.57
2023-03-25T11:31:16.565Z,8.97
2023-03-25T11:33:46.124Z,9.47
2023-03-25T11:36:31.485Z,9.40
2023-03-25T11:39:01.771Z,9.40
2023-03-25T11:41:32.453Z,9.43
2023-03-25T11:44:01.053Z,9.60
2023-03-25T11:46:29.452Z,9.67
2023-03-25T11:48:57.712Z,9.73
2023-03-25T11:51:28.967Z,9.70
2023-03-25T11:54:00.824Z,9.70
2023-03-25T11:56:35.896Z,9.67
2023-03-25T11:59:08.517Z,10.40
2023-03-25T12:01:41.964Z,10.53
2023-03-25T12:04:15.967Z,9.80
2023-03-25T12:06:58.998Z,9.03
2023-03-25T12:09:31.468Z,10.17
2023-03-25T12:12:24.126Z,11.00
2023-03-25T12:15:00.903Z,10.87
2023-03-25T12:17:41.114Z,10.50
2023-03-25T12:20:22.522Z,10.23
2023-03-25T12:23:01.278Z,10.90
2023-03-25T12:25:42.908Z,10.23
2023-03-25T12:28:32.367Z,10.17
2023-03-25T12:31:11.313Z,10.00
2023-03-25T12:33:51.498Z,9.70
2023-03-25T12:36:30.918Z,9.33
2023-03-25T12:39:09.553Z,9.70
2023-03-25T12:41:47.299Z,9.00
2023-03-25T12:44:24.631Z,9.73
2023-03-25T12:47:04.178Z,8.90
2023-03-25T12:49:58.356Z,10.10
2023-03-25T12:52:36.275Z,10.07
2023-03-25T12:55:26.711Z,10.43
2023-03-25T12:58:18.049Z,10.20
2023-03-25T13:00:53.962Z,10.90
2023-03-25T13:03:43.431Z,11.40
2023-03-25T13:06:22.142Z,11.10
2023-03-25T13:08:57.895Z,11.40
2023-03-25T13:11:32.706Z,11.33
2023-03-25T13:14:10.029Z,11.50
2023-03-25T13:16:41.262Z,11.30
2023-03-25T13:19:13.462Z,9.70
2023-03-25T13:21:45.351Z,9.63
2023-03-25T13:24:17.805Z,9.50
2023-03-25T13:26:48.263Z,10.33
2023-03-25T13:29:27.758Z,11.40
2023-03-25T13:31:59.297Z,10.27
2023-03-25T13:34:33.684Z,10.87
2023-03-25T13:37:09.965Z,10.60
2023-03-25T13:39:55.957Z,10.27
2023-03-25T13:42:29.413Z,10.90
2023-03-25T13:44:59.880Z,10.70
2023-03-25T13:47:32.965Z,10.10
2023-03-25T13:50:05.767Z,10.10
2023-03-25T13:52:39.447Z,9.40
2023-03-25T13:55:14.660Z,9.60
2023-03-25T13:58:31.004Z,9.83
2023-03-25T14:01:29.023Z,9.30
2023-03-25T14:04:36.521Z,9.33
2023-03-25T14:07:29.175Z,9.23
2023-03-25T14:10:14.473Z,10.47
2023-03-25T14:12:47.044Z,8.87
2023-03-25T14:15:19.994Z,8.07
2023-03-25T14:17:53.002Z,9.30
2023-03-25T14:20:27.158Z,7.80
2023-03-25T14:22:59.753Z,7.50
2023-03-25T14:25:37.239Z,7.53
2023-03-25T14:28:07.854Z,8.30
2023-03-25T14:30:36.479Z,7.53
2023-03-25T14:33:06.335Z,6.90
2023-03-25T14:35:49.921Z,7.10
2023-03-25T14:38:26.461Z,7.83
2023-03-25T14:41:03.450Z,7.37
2023-03-25T14:43:37.489Z,8.43
2023-03-25T14:46:14.455Z,7.90
2023-03-25T14:48:46.213Z,7.90
2023-03-25T14:51:41.640Z,7.63
2023-03-25T14:54:20.287Z,8.20
2023-03-25T14:56:55.848Z,7.90
2023-03-25T14:59:28.686Z,7.70
2023-03-25T15:02:04.210Z,7.90
2023-03-25T15:04:37.969Z,7.97
2023-03-25T15:07:12.754Z,7.60
2023-03-25T15:09:48.471Z,7.90
2023-03-25T15:12:20.153Z,9.80
2023-03-25T15:14:51.490Z,8.20
2023-03-25T15:17:42.812Z,8.40
2023-03-25T15:20:35.910Z,8.07
2023-03-25T15:23:37.982Z,8.10
2023-03-25T15:26:11.378Z,7.93
2023-03-25T15:29:03.125Z,7.60
2023-03-25T15:31:56.283Z,7.97
2023-03-25T15:34:44.795Z,8.83
2023-03-25T15:37:46.877Z,7.73
2023-03-25T15:40:32.044Z,7.90
2023-03-25T15:43:47.215Z,8.47
2023-03-25T15:46:51.582Z,8.50
2023-03-25T15:49:55.008Z,7.80
2023-03-25T15:52:38.615Z,7.63
2023-03-25T15:55:10.534Z,7.80
2023-03-25T15:57:41.406Z,7.90
2023-03-25T16:00:16.038Z,7.80
2023-03-25T16:02:48.335Z,7.63
2023-03-25T16:05:19.800Z,7.40
2023-03-25T16:07:48.341Z,7.47
2023-03-25T16:10:19.669Z,10.17
2023-03-25T16:12:50.081Z,6.97
2023-03-25T16:15:20.561Z,7.77
2023-03-25T16:17:49.119Z,7.30
2023-03-25T16:20:21.045Z,7.20
2023-03-25T16:22:51.801Z,6.80
2023-03-25T16:25:24.678Z,7.10
2023-03-25T16:27:55.966Z,7.60
2023-03-25T16:30:29.601Z,7.37
2023-03-25T16:33:12.493Z,7.13
2023-03-25T16:35:42.934Z,6.30
2023-03-25T16:38:17.497Z,8.43
2023-03-25T16:40:55.286Z,7.80
2023-03-25T16:43:27.516Z,7.80
2023-03-25T16:45:59.628Z,7.50
2023-03-25T16:48:33.242Z,7.30
2023-03-25T16:51:06.838Z,8.00
2023-03-25T16:53:39.970Z,7.70
2023-03-25T16:56:28.911Z,7.20
2023-03-25T16:59:01.249Z,7.40
2023-03-25T17:01:33.345Z,6.60
2023-03-25T17:04:12.423Z,6.60
2023-03-25T17:06:44.392Z,6.83
2023-03-25T17:09:18.037Z,7.07
2023-03-25T17:11:57.008Z,6.90
2023-03-25T17:14:34.958Z,6.70
2023-03-25T17:17:28.758Z,6.60
2023-03-25T17:20:02.083Z,7.13
2023-03-25T17:22:35.208Z,7.37
2023-03-25T17:25:25.355Z,6.90
2023-03-25T17:27:58.263Z,6.63
2023-03-25T17:30:42.683Z,8.00
2023-03-25T17:33:13.766Z,6.60
2023-03-25T17:35:44.837Z,6.93
2023-03-25T17:38:22.417Z,6.20
2023-03-25T17:40:59.842Z,6.67
2023-03-25T17:43:32.436Z,6.83
2023-03-25T17:46:01.757Z,6.47
2023-03-25T17:48:30.267Z,5.97
2023-03-25T17:50:59.733Z,6.87
2023-03-25T17:53:28.289Z,6.40
2023-03-25T17:55:59.220Z,5.87
2023-03-25T17:58:29.365Z,6.70
2023-03-25T18:00:59.054Z,6.23
2023-03-25T18:03:30.609Z,7.30
2023-03-25T18:06:05.167Z,6.77
2023-03-25T18:08:34.918Z,7.37
2023-03-25T18:11:03.164Z,7.80
2023-03-25T18:13:33.433Z,8.50
2023-03-25T18:16:02.125Z,6.80
2023-03-25T18:18:30.476Z,7.50
2023-03-25T18:21:00.356Z,6.70
2023-03-25T18:23:28.688Z,6.83
2023-03-25T18:25:58.060Z,7.23
2023-03-25T18:28:29.297Z,7.57
2023-03-25T18:31:00.365Z,7.10
2023-03-25T18:33:32.757Z,6.93
2023-03-25T18:36:00.961Z,6.70
2023-03-25T18:38:29.273Z,7.57
2023-03-25T18:40:57.798Z,7.30
2023-03-25T18:43:25.989Z,6.87
2023-03-25T18:45:54.434Z,6.53
2023-03-25T18:48:24.291Z,7.40
2023-03-25T18:50:54.801Z,7.90
2023-03-25T18:53:24.328Z,7.40
2023-03-25T18:55:53.007Z,7.40
2023-03-25T18:58:23.367Z,7.20
2023-03-25T19:00:54.554Z,7.10
2023-03-25T19:03:30.809Z,7.07
2023-03-25T19:05:59.639Z,6.47
2023-03-25T19:08:29.034Z,7.80
2023-03-25T19:11:04.791Z,6.97
2023-03-25T19:13:41.192Z,6.80
2023-03-25T19:16:09.938Z,6.90
2023-03-25T19:18:39.464Z,6.80
2023-03-25T19:21:09.411Z,6.60
2023-03-25T19:23:44.206Z,6.60
2023-03-25T19:26:15.426Z,6.33
2023-03-25T19:28:44.064Z,7.13
2023-03-25T19:31:16.014Z,7.00
2023-03-25T19:33:45.969Z,7.03
2023-03-25T19:36:16.305Z,7.40
2023-03-25T19:38:44.518Z,8.27
2023-03-25T19:41:15.560Z,8.07
2023-03-25T19:43:43.921Z,7.37
2023-03-25T19:46:13.317Z,6.93
2023-03-25T19:48:41.632Z,8.13
2023-03-25T19:51:11.559Z,8.03
2023-03-25T19:53:39.879Z,6.90
2023-03-25T19:56:13.741Z,7.30
2023-03-25T19:58:42.330Z,7.13
2023-03-25T20:01:10.669Z,7.00
2023-03-25T20:03:41.110Z,7.30
2023-03-25T20:06:10.979Z,7.30
2023-03-25T20:08:39.432Z,7.80
2023-03-25T20:11:12.314Z,7.03
2023-03-25T20:13:40.587Z,6.60
2023-03-25T20:16:09.520Z,7.17
2023-03-25T20:18:38.453Z,7.20
2023-03-25T20:21:08.281Z,7.50
2023-03-25T20:23:37.744Z,8.40
2023-03-25T20:26:06.657Z,6.70
2023-03-25T20:28:36.107Z,6.90
2023-03-25T20:31:16.603Z,7.10
2023-03-25T20:33:44.871Z,7.00
2023-03-25T20:36:13.075Z,6.80
2023-03-25T20:38:56.065Z,7.00
2023-03-25T20:41:25.504Z,7.00
2023-03-25T20:43:54.014Z,7.50
2023-03-25T20:46:23.920Z,7.13
2023-03-25T20:48:52.184Z,7.40
2023-03-25T20:51:20.658Z,7.13
2023-03-25T20:53:50.230Z,7.30
2023-03-25T20:56:21.170Z,7.50
2023-03-25T20:58:49.269Z,7.60
2023-03-25T21:01:18.114Z,7.63
2023-03-25T21:03:46.345Z,8.33
2023-03-25T21:06:24.538Z,7.53
2023-03-25T21:08:55.935Z,7.70
2023-03-25T21:11:24.176Z,8.53
2023-03-25T21:13:52.413Z,8.70
2023-03-25T21:16:20.682Z,8.70
2023-03-25T21:18:52.740Z,8.47
2023-03-25T21:21:21.342Z,7.60
2023-03-25T21:23:50.792Z,7.97
2023-03-25T21:26:20.504Z,8.07
2023-03-25T21:28:49.794Z,8.20
2023-03-25T21:31:22.051Z,8.13
2023-03-25T21:33:52.634Z,8.30
2023-03-25T21:36:24.283Z,8.50
2023-03-25T21:38:56.176Z,8.00
2023-03-25T21:41:26.141Z,8.47
2023-03-25T21:43:54.484Z,8.97
2023-03-25T21:46:27.703Z,9.47
2023-03-25T21:48:58.491Z,8.30
2023-03-25T21:51:30.349Z,8.57
2023-03-25T21:54:00.328Z,8.57
2023-03-25T21:56:32.522Z,8.77
2023-03-25T21:59:01.833Z,8.80
2023-03-25T22:01:30.174Z,9.00
2023-03-25T22:03:59.986Z,9.47
2023-03-25T22:06:30.118Z,8.60
2023-03-25T22:08:59.019Z,9.50
2023-03-25T22:11:30.450Z,9.50
2023-03-25T22:13:58.898Z,8.90
2023-03-25T22:16:27.657Z,8.87
2023-03-25T22:18:56.013Z,8.57
2023-03-25T22:21:26.392Z,8.90
2023-03-25T22:23:56.393Z,8.93
2023-03-25T22:26:25.530Z,9.60
2023-03-25T22:28:56.787Z,8.67
2023-03-25T22:31:30.723Z,9.00
2023-03-25T22:34:02.905Z,8.80
2023-03-25T22:36:32.055Z,8.93
2023-03-25T22:39:01.025Z,8.97
2023-03-25T22:41:29.116Z,9.03
2023-03-25T22:43:58.682Z,9.13
2023-03-25T22:46:26.919Z,9.23
2023-03-25T22:48:55.519Z,9.33
2023-03-25T22:51:23.685Z,8.80
2023-03-25T22:53:51.845Z,9.80
2023-03-25T22:56:20.241Z,9.53
2023-03-25T22:58:48.374Z,9.50
2023-03-25T23:01:22.349Z,9.20
2023-03-25T23:03:51.266Z,9.30
2023-03-25T23:06:19.664Z,9.70
2023-03-25T23:08:48.217Z,9.40
2023-03-25T23:11:18.607Z,9.60
2023-03-25T23:13:48.813Z,10.57
2023-03-25T23:16:18.604Z,10.60
2023-03-25T23:18:48.475Z,10.37
2023-03-25T23:21:19.755Z,9.90
2023-03-25T23:23:53.333Z,9.87
2023-03-25T23:26:24.564Z,9.67
2023-03-25T23:28:53.812Z,9.33
2023-03-25T23:31:28.486Z,9.50
2023-03-25T23:33:59.596Z,9.97
2023-03-25T23:36:29.186Z,10.10
2023-03-25T23:38:58.702Z,10.33
2023-03-25T23:41:27.359Z,10.30
2023-03-25T23:43:56.606Z,9.63
2023-03-25T23:46:26.249Z,10.17
2023-03-25T23:48:55.626Z,9.57
2023-03-25T23:51:26.261Z,9.87
2023-03-25T23:53:54.450Z,9.60
2023-03-25T23:56:24.963Z,9.97
2023-03-25T23:58:54.486Z,9.53
